sensor_id;sensor_type;location;lat;lon;timestamp;P1;durP1;ratioP1;P2;durP2;ratioP2
11123;SDS011;5616;42.692;23.312;2022-10-19T00:01:06;11.23;;;7.33;;
11123;SDS011;5616;42.692;23.312;2022-10-19T00:03:36;12.33;;;7.60;;
11123;SDS011;5616;42.692;23.312;2022-10-19T00:06:10;19.10;;;8.40;;
11123;SDS011;5616;42.692;23.312;2022-10-19T00:08:38;15.10;;;7.63;;
11123;SDS011;5616;42.692;23.312;2022-10-19T00:11:05;15.03;;;8.90;;
11123;SDS011;5616;42.692;23.312;2022-10-19T00:13:32;16.10;;;9.07;;
11123;SDS011;5616;42.692;23.312;2022-10-19T00:15:59;13.40;;;8.20;;
11123;SDS011;5616;42.692;23.312;2022-10-19T00:18:28;14.17;;;8.63;;
11123;SDS011;5616;42.692;23.312;2022-10-19T00:21:01;11.20;;;7.50;;
11123;SDS011;5616;42.692;23.312;2022-10-19T00:23:28;14.27;;;7.70;;
11123;SDS011;5616;42.692;23.312;2022-10-19T00:25:55;11.93;;;7.43;;
11123;SDS011;5616;42.692;23.312;2022-10-19T00:28:23;11.53;;;7.77;;
11123;SDS011;5616;42.692;23.312;2022-10-19T00:30:50;9.57;;;7.67;;
11123;SDS011;5616;42.692;23.312;2022-10-19T00:33:17;10.43;;;7.40;;
11123;SDS011;5616;42.692;23.312;2022-10-19T00:35:48;11.67;;;6.83;;
11123;SDS011;5616;42.692;23.312;2022-10-19T00:38:15;11.53;;;7.23;;
11123;SDS011;5616;42.692;23.312;2022-10-19T00:40:42;9.67;;;7.00;;
11123;SDS011;5616;42.692;23.312;2022-10-19T00:43:12;9.37;;;6.40;;
11123;SDS011;5616;42.692;23.312;2022-10-19T00:45:40;8.77;;;6.73;;
11123;SDS011;5616;42.692;23.312;2022-10-19T00:48:07;9.40;;;6.40;;
11123;SDS011;5616;42.692;23.312;2022-10-19T00:50:36;9.00;;;5.97;;
11123;SDS011;5616;42.692;23.312;2022-10-19T00:53:04;10.33;;;6.27;;
11123;SDS011;5616;42.692;23.312;2022-10-19T00:55:32;9.40;;;6.53;;
11123;SDS011;5616;42.692;23.312;2022-10-19T00:57:59;8.33;;;5.87;;
11123;SDS011;5616;42.692;23.312;2022-10-19T01:00:29;8.97;;;6.07;;
11123;SDS011;5616;42.692;23.312;2022-10-19T01:02:58;9.30;;;5.47;;
11123;SDS011;5616;42.692;23.312;2022-10-19T01:05:25;8.07;;;5.57;;
11123;SDS011;5616;42.692;23.312;2022-10-19T01:07:53;7.37;;;5.07;;
11123;SDS011;5616;42.692;23.312;2022-10-19T01:10:24;7.70;;;5.20;;
11123;SDS011;5616;42.692;23.312;2022-10-19T01:13:05;9.00;;;5.00;;
11123;SDS011;5616;42.692;23.312;2022-10-19T01:15:40;7.30;;;5.27;;
11123;SDS011;5616;42.692;23.312;2022-10-19T01:18:18;7.70;;;5.27;;
11123;SDS011;5616;42.692;23.312;2022-10-19T01:21:01;7.93;;;5.50;;
11123;SDS011;5616;42.692;23.312;2022-10-19T01:29:40;9.67;;;6.83;;
11123;SDS011;5616;42.692;23.312;2022-10-19T01:32:30;9.70;;;7.40;;
11123;SDS011;5616;42.692;23.312;2022-10-19T01:35:06;11.00;;;7.37;;
11123;SDS011;5616;42.692;23.312;2022-10-19T01:37:38;9.53;;;7.07;;
11123;SDS011;5616;42.692;23.312;2022-10-19T01:40:11;13.07;;;7.87;;
11123;SDS011;5616;42.692;23.312;2022-10-19T01:42:47;10.87;;;7.90;;
11123;SDS011;5616;42.692;23.312;2022-10-19T01:45:24;11.37;;;8.00;;
11123;SDS011;5616;42.692;23.312;2022-10-19T01:47:57;8.33;;;6.80;;
11123;SDS011;5616;42.692;23.312;2022-10-19T01:50:30;11.37;;;7.30;;
11123;SDS011;5616;42.692;23.312;2022-10-19T01:53:03;7.10;;;6.37;;
11123;SDS011;5616;42.692;23.312;2022-10-19T01:55:33;11.37;;;6.60;;
11123;SDS011;5616;42.692;23.312;2022-10-19T01:58:03;8.80;;;6.00;;
11123;SDS011;5616;42.692;23.312;2022-10-19T02:00:34;7.83;;;5.90;;
11123;SDS011;5616;42.692;23.312;2022-10-19T02:03:05;7.80;;;6.60;;
11123;SDS011;5616;42.692;23.312;2022-10-19T02:05:32;11.43;;;6.63;;
11123;SDS011;5616;42.692;23.312;2022-10-19T02:08:02;10.40;;;6.97;;
11123;SDS011;5616;42.692;23.312;2022-10-19T02:10:36;8.70;;;6.80;;
11123;SDS011;5616;42.692;23.312;2022-10-19T02:13:05;12.10;;;6.60;;
11123;SDS011;5616;42.692;23.312;2022-10-19T02:15:35;12.43;;;6.67;;
11123;SDS011;5616;42.692;23.312;2022-10-19T02:18:05;12.23;;;6.87;;
11123;SDS011;5616;42.692;23.312;2022-10-19T02:20:33;10.87;;;6.90;;
11123;SDS011;5616;42.692;23.312;2022-10-19T02:23:02;12.87;;;7.33;;
11123;SDS011;5616;42.692;23.312;2022-10-19T02:25:29;10.53;;;7.20;;
11123;SDS011;5616;42.692;23.312;2022-10-19T02:27:57;10.23;;;6.30;;
11123;SDS011;5616;42.692;23.312;2022-10-19T02:30:25;9.83;;;6.70;;
11123;SDS011;5616;42.692;23.312;2022-10-19T02:32:53;10.97;;;6.73;;
11123;SDS011;5616;42.692;23.312;2022-10-19T02:35:20;10.17;;;6.67;;
11123;SDS011;5616;42.692;23.312;2022-10-19T02:37:47;9.37;;;6.63;;
11123;SDS011;5616;42.692;23.312;2022-10-19T02:40:14;10.77;;;7.17;;
11123;SDS011;5616;42.692;23.312;2022-10-19T02:42:42;8.50;;;6.00;;
11123;SDS011;5616;42.692;23.312;2022-10-19T02:45:15;9.67;;;6.70;;
11123;SDS011;5616;42.692;23.312;2022-10-19T02:47:47;12.10;;;6.67;;
11123;SDS011;5616;42.692;23.312;2022-10-19T02:50:19;11.10;;;6.17;;
11123;SDS011;5616;42.692;23.312;2022-10-19T02:52:47;11.03;;;6.93;;
11123;SDS011;5616;42.692;23.312;2022-10-19T02:55:14;14.20;;;6.80;;
11123;SDS011;5616;42.692;23.312;2022-10-19T02:57:41;10.97;;;7.30;;
11123;SDS011;5616;42.692;23.312;2022-10-19T03:00:08;11.63;;;7.80;;
11123;SDS011;5616;42.692;23.312;2022-10-19T03:02:36;13.40;;;8.00;;
11123;SDS011;5616;42.692;23.312;2022-10-19T03:05:03;14.53;;;7.73;;
11123;SDS011;5616;42.692;23.312;2022-10-19T03:07:31;10.23;;;7.13;;
11123;SDS011;5616;42.692;23.312;2022-10-19T03:09:58;11.40;;;6.70;;
11123;SDS011;5616;42.692;23.312;2022-10-19T03:12:25;15.83;;;5.93;;
11123;SDS011;5616;42.692;23.312;2022-10-19T03:14:52;9.03;;;5.83;;
11123;SDS011;5616;42.692;23.312;2022-10-19T03:17:18;13.97;;;5.53;;
11123;SDS011;5616;42.692;23.312;2022-10-19T03:19:45;8.20;;;5.97;;
11123;SDS011;5616;42.692;23.312;2022-10-19T03:22:12;8.87;;;5.67;;
11123;SDS011;5616;42.692;23.312;2022-10-19T03:24:40;7.53;;;5.70;;
11123;SDS011;5616;42.692;23.312;2022-10-19T03:27:07;7.33;;;5.37;;
11123;SDS011;5616;42.692;23.312;2022-10-19T03:29:34;9.17;;;5.57;;
11123;SDS011;5616;42.692;23.312;2022-10-19T03:32:01;8.87;;;5.57;;
11123;SDS011;5616;42.692;23.312;2022-10-19T03:34:28;8.00;;;5.60;;
11123;SDS011;5616;42.692;23.312;2022-10-19T03:36:54;6.70;;;5.63;;
11123;SDS011;5616;42.692;23.312;2022-10-19T03:39:23;10.83;;;5.97;;
11123;SDS011;5616;42.692;23.312;2022-10-19T03:41:51;9.77;;;5.50;;
11123;SDS011;5616;42.692;23.312;2022-10-19T03:44:18;8.13;;;5.53;;
11123;SDS011;5616;42.692;23.312;2022-10-19T03:46:45;14.00;;;6.60;;
11123;SDS011;5616;42.692;23.312;2022-10-19T03:49:12;9.87;;;6.50;;
11123;SDS011;5616;42.692;23.312;2022-10-19T03:51:39;11.10;;;6.27;;
11123;SDS011;5616;42.692;23.312;2022-10-19T03:54:06;15.20;;;6.80;;
11123;SDS011;5616;42.692;23.312;2022-10-19T03:56:34;10.10;;;6.53;;
11123;SDS011;5616;42.692;23.312;2022-10-19T03:59:03;12.97;;;6.23;;
11123;SDS011;5616;42.692;23.312;2022-10-19T04:01:31;11.47;;;6.33;;
11123;SDS011;5616;42.692;23.312;2022-10-19T04:04:00;12.97;;;6.90;;
11123;SDS011;5616;42.692;23.312;2022-10-19T04:06:29;12.67;;;6.57;;
11123;SDS011;5616;42.692;23.312;2022-10-19T04:08:57;10.40;;;6.03;;
11123;SDS011;5616;42.692;23.312;2022-10-19T04:11:25;13.83;;;6.20;;
11123;SDS011;5616;42.692;23.312;2022-10-19T04:13:53;10.73;;;6.17;;
11123;SDS011;5616;42.692;23.312;2022-10-19T04:16:22;12.97;;;7.27;;
11123;SDS011;5616;42.692;23.312;2022-10-19T04:18:50;14.97;;;8.00;;
11123;SDS011;5616;42.692;23.312;2022-10-19T04:21:18;16.83;;;9.17;;
11123;SDS011;5616;42.692;23.312;2022-10-19T04:23:47;17.03;;;8.83;;
11123;SDS011;5616;42.692;23.312;2022-10-19T04:26:15;15.77;;;9.47;;
11123;SDS011;5616;42.692;23.312;2022-10-19T04:28:42;20.03;;;10.30;;
11123;SDS011;5616;42.692;23.312;2022-10-19T04:31:09;14.97;;;9.30;;
11123;SDS011;5616;42.692;23.312;2022-10-19T04:33:38;13.83;;;8.90;;
11123;SDS011;5616;42.692;23.312;2022-10-19T04:36:06;12.20;;;8.03;;
11123;SDS011;5616;42.692;23.312;2022-10-19T04:38:34;10.83;;;7.77;;
11123;SDS011;5616;42.692;23.312;2022-10-19T04:41:01;10.63;;;7.77;;
11123;SDS011;5616;42.692;23.312;2022-10-19T04:43:29;17.07;;;8.60;;
11123;SDS011;5616;42.692;23.312;2022-10-19T04:45:56;20.03;;;8.07;;
11123;SDS011;5616;42.692;23.312;2022-10-19T04:48:26;12.77;;;7.63;;
11123;SDS011;5616;42.692;23.312;2022-10-19T04:50:55;11.33;;;7.13;;
11123;SDS011;5616;42.692;23.312;2022-10-19T04:53:21;14.33;;;7.60;;
11123;SDS011;5616;42.692;23.312;2022-10-19T04:55:49;11.30;;;6.50;;
11123;SDS011;5616;42.692;23.312;2022-10-19T04:58:15;11.50;;;6.53;;
11123;SDS011;5616;42.692;23.312;2022-10-19T05:00:42;13.27;;;6.70;;
11123;SDS011;5616;42.692;23.312;2022-10-19T05:03:09;10.50;;;6.33;;
11123;SDS011;5616;42.692;23.312;2022-10-19T05:05:36;15.47;;;6.90;;
11123;SDS011;5616;42.692;23.312;2022-10-19T05:08:04;11.53;;;6.90;;
11123;SDS011;5616;42.692;23.312;2022-10-19T05:10:31;12.17;;;6.43;;
11123;SDS011;5616;42.692;23.312;2022-10-19T05:12:59;11.70;;;6.67;;
11123;SDS011;5616;42.692;23.312;2022-10-19T05:15:26;9.83;;;6.30;;
11123;SDS011;5616;42.692;23.312;2022-10-19T05:17:53;14.17;;;7.53;;
11123;SDS011;5616;42.692;23.312;2022-10-19T05:20:20;17.97;;;8.40;;
11123;SDS011;5616;42.692;23.312;2022-10-19T05:22:47;17.80;;;8.50;;
11123;SDS011;5616;42.692;23.312;2022-10-19T05:25:15;14.73;;;7.90;;
11123;SDS011;5616;42.692;23.312;2022-10-19T05:27:42;16.83;;;8.27;;
11123;SDS011;5616;42.692;23.312;2022-10-19T05:30:09;16.10;;;8.70;;
11123;SDS011;5616;42.692;23.312;2022-10-19T05:32:38;20.77;;;8.67;;
11123;SDS011;5616;42.692;23.312;2022-10-19T05:35:05;15.47;;;7.60;;
11123;SDS011;5616;42.692;23.312;2022-10-19T05:37:32;16.23;;;8.90;;
11123;SDS011;5616;42.692;23.312;2022-10-19T05:39:59;25.23;;;10.90;;
11123;SDS011;5616;42.692;23.312;2022-10-19T05:42:27;23.17;;;8.90;;
11123;SDS011;5616;42.692;23.312;2022-10-19T05:44:54;25.60;;;9.20;;
11123;SDS011;5616;42.692;23.312;2022-10-19T05:47:21;15.77;;;8.30;;
11123;SDS011;5616;42.692;23.312;2022-10-19T05:49:47;20.00;;;8.73;;
11123;SDS011;5616;42.692;23.312;2022-10-19T05:52:14;15.10;;;9.00;;
11123;SDS011;5616;42.692;23.312;2022-10-19T05:54:42;18.97;;;9.97;;
11123;SDS011;5616;42.692;23.312;2022-10-19T05:57:08;13.67;;;8.93;;
11123;SDS011;5616;42.692;23.312;2022-10-19T05:59:36;19.77;;;8.77;;
11123;SDS011;5616;42.692;23.312;2022-10-19T06:02:03;16.57;;;8.60;;
11123;SDS011;5616;42.692;23.312;2022-10-19T06:04:30;13.93;;;8.97;;
11123;SDS011;5616;42.692;23.312;2022-10-19T06:06:57;14.37;;;7.67;;
11123;SDS011;5616;42.692;23.312;2022-10-19T06:09:26;15.33;;;8.73;;
11123;SDS011;5616;42.692;23.312;2022-10-19T06:11:52;14.50;;;7.13;;
11123;SDS011;5616;42.692;23.312;2022-10-19T06:14:19;13.27;;;8.20;;
11123;SDS011;5616;42.692;23.312;2022-10-19T06:16:47;20.03;;;8.37;;
11123;SDS011;5616;42.692;23.312;2022-10-19T06:19:14;13.60;;;8.33;;
11123;SDS011;5616;42.692;23.312;2022-10-19T06:21:42;14.57;;;8.47;;
11123;SDS011;5616;42.692;23.312;2022-10-19T06:24:09;15.63;;;9.07;;
11123;SDS011;5616;42.692;23.312;2022-10-19T06:26:37;11.90;;;8.30;;
11123;SDS011;5616;42.692;23.312;2022-10-19T06:29:04;18.87;;;8.67;;
11123;SDS011;5616;42.692;23.312;2022-10-19T06:31:31;19.43;;;9.17;;
11123;SDS011;5616;42.692;23.312;2022-10-19T06:34:01;16.90;;;8.77;;
11123;SDS011;5616;42.692;23.312;2022-10-19T06:36:29;24.90;;;9.47;;
11123;SDS011;5616;42.692;23.312;2022-10-19T06:38:57;16.20;;;9.33;;
11123;SDS011;5616;42.692;23.312;2022-10-19T06:41:25;15.63;;;9.23;;
11123;SDS011;5616;42.692;23.312;2022-10-19T06:43:53;16.70;;;9.27;;
11123;SDS011;5616;42.692;23.312;2022-10-19T06:46:21;14.27;;;9.13;;
11123;SDS011;5616;42.692;23.312;2022-10-19T06:48:50;15.47;;;9.40;;
11123;SDS011;5616;42.692;23.312;2022-10-19T06:51:19;13.53;;;9.27;;
11123;SDS011;5616;42.692;23.312;2022-10-19T06:53:47;20.47;;;9.03;;
11123;SDS011;5616;42.692;23.312;2022-10-19T06:56:14;16.10;;;9.57;;
11123;SDS011;5616;42.692;23.312;2022-10-19T06:58:41;17.10;;;9.60;;
11123;SDS011;5616;42.692;23.312;2022-10-19T07:01:08;22.13;;;9.97;;
11123;SDS011;5616;42.692;23.312;2022-10-19T07:03:36;33.20;;;15.27;;
11123;SDS011;5616;42.692;23.312;2022-10-19T07:06:04;17.77;;;11.50;;
11123;SDS011;5616;42.692;23.312;2022-10-19T07:08:34;20.10;;;10.50;;
11123;SDS011;5616;42.692;23.312;2022-10-19T07:11:03;21.30;;;10.47;;
11123;SDS011;5616;42.692;23.312;2022-10-19T07:13:31;17.13;;;10.43;;
11123;SDS011;5616;42.692;23.312;2022-10-19T07:15:58;23.07;;;9.53;;
11123;SDS011;5616;42.692;23.312;2022-10-19T07:18:27;21.30;;;10.10;;
11123;SDS011;5616;42.692;23.312;2022-10-19T07:20:55;19.47;;;10.07;;
11123;SDS011;5616;42.692;23.312;2022-10-19T07:23:23;18.97;;;10.17;;
11123;SDS011;5616;42.692;23.312;2022-10-19T07:25:51;16.60;;;10.37;;
11123;SDS011;5616;42.692;23.312;2022-10-19T07:28:19;19.83;;;11.07;;
11123;SDS011;5616;42.692;23.312;2022-10-19T07:30:47;24.33;;;11.27;;
11123;SDS011;5616;42.692;23.312;2022-10-19T07:33:13;24.20;;;11.90;;
11123;SDS011;5616;42.692;23.312;2022-10-19T07:35:40;19.37;;;10.63;;
11123;SDS011;5616;42.692;23.312;2022-10-19T07:38:07;23.33;;;11.40;;
11123;SDS011;5616;42.692;23.312;2022-10-19T07:40:34;20.60;;;10.90;;
11123;SDS011;5616;42.692;23.312;2022-10-19T07:43:02;28.93;;;12.27;;
11123;SDS011;5616;42.692;23.312;2022-10-19T07:45:29;24.13;;;11.77;;
11123;SDS011;5616;42.692;23.312;2022-10-19T07:47:58;22.60;;;11.80;;
11123;SDS011;5616;42.692;23.312;2022-10-19T07:50:25;27.80;;;12.40;;
11123;SDS011;5616;42.692;23.312;2022-10-19T07:52:52;26.27;;;12.17;;
11123;SDS011;5616;42.692;23.312;2022-10-19T07:55:19;27.47;;;12.17;;
11123;SDS011;5616;42.692;23.312;2022-10-19T07:57:46;26.53;;;11.70;;
11123;SDS011;5616;42.692;23.312;2022-10-19T08:00:15;23.47;;;11.40;;
11123;SDS011;5616;42.692;23.312;2022-10-19T08:02:42;19.67;;;11.20;;
11123;SDS011;5616;42.692;23.312;2022-10-19T08:05:09;19.60;;;11.77;;
11123;SDS011;5616;42.692;23.312;2022-10-19T08:07:36;15.67;;;10.67;;
11123;SDS011;5616;42.692;23.312;2022-10-19T08:10:04;20.17;;;11.13;;
11123;SDS011;5616;42.692;23.312;2022-10-19T08:12:33;17.37;;;11.03;;
11123;SDS011;5616;42.692;23.312;2022-10-19T08:15:00;22.80;;;10.97;;
11123;SDS011;5616;42.692;23.312;2022-10-19T08:17:32;21.17;;;11.10;;
11123;SDS011;5616;42.692;23.312;2022-10-19T08:20:01;18.60;;;10.60;;
11123;SDS011;5616;42.692;23.312;2022-10-19T08:22:27;18.03;;;11.43;;
11123;SDS011;5616;42.692;23.312;2022-10-19T08:24:54;16.57;;;11.00;;
11123;SDS011;5616;42.692;23.312;2022-10-19T08:27:21;15.17;;;10.33;;
11123;SDS011;5616;42.692;23.312;2022-10-19T08:29:48;18.97;;;11.10;;
11123;SDS011;5616;42.692;23.312;2022-10-19T08:32:15;22.20;;;12.07;;
11123;SDS011;5616;42.692;23.312;2022-10-19T08:34:43;27.03;;;11.93;;
11123;SDS011;5616;42.692;23.312;2022-10-19T08:37:10;25.67;;;11.97;;
11123;SDS011;5616;42.692;23.312;2022-10-19T08:39:37;17.07;;;9.70;;
11123;SDS011;5616;42.692;23.312;2022-10-19T08:42:05;13.43;;;8.80;;
11123;SDS011;5616;42.692;23.312;2022-10-19T08:45:00;20.00;;;9.20;;
11123;SDS011;5616;42.692;23.312;2022-10-19T08:47:36;18.37;;;9.53;;
11123;SDS011;5616;42.692;23.312;2022-10-19T08:50:17;17.27;;;8.30;;
11123;SDS011;5616;42.692;23.312;2022-10-19T08:52:48;12.67;;;7.10;;
11123;SDS011;5616;42.692;23.312;2022-10-19T08:55:21;15.70;;;7.33;;
11123;SDS011;5616;42.692;23.312;2022-10-19T08:57:59;9.10;;;5.90;;
11123;SDS011;5616;42.692;23.312;2022-10-19T09:00:34;8.23;;;4.67;;
11123;SDS011;5616;42.692;23.312;2022-10-19T09:03:10;8.30;;;4.87;;
11123;SDS011;5616;42.692;23.312;2022-10-19T09:05:44;6.37;;;4.50;;
11123;SDS011;5616;42.692;23.312;2022-10-19T09:08:14;8.73;;;4.40;;
11123;SDS011;5616;42.692;23.312;2022-10-19T09:10:45;7.80;;;4.70;;
11123;SDS011;5616;42.692;23.312;2022-10-19T09:13:15;6.93;;;4.43;;
11123;SDS011;5616;42.692;23.312;2022-10-19T09:15:48;7.27;;;4.03;;
11123;SDS011;5616;42.692;23.312;2022-10-19T09:18:18;5.57;;;3.70;;
11123;SDS011;5616;42.692;23.312;2022-10-19T09:20:49;4.57;;;3.60;;
11123;SDS011;5616;42.692;23.312;2022-10-19T09:23:23;10.90;;;3.87;;
11123;SDS011;5616;42.692;23.312;2022-10-19T09:25:54;8.33;;;4.00;;
11123;SDS011;5616;42.692;23.312;2022-10-19T09:28:34;9.60;;;3.83;;
11123;SDS011;5616;42.692;23.312;2022-10-19T09:31:11;6.03;;;3.60;;
11123;SDS011;5616;42.692;23.312;2022-10-19T09:33:41;7.10;;;3.23;;
11123;SDS011;5616;42.692;23.312;2022-10-19T09:36:13;4.47;;;3.13;;
11123;SDS011;5616;42.692;23.312;2022-10-19T09:38:39;10.03;;;3.53;;
11123;SDS011;5616;42.692;23.312;2022-10-19T09:41:11;8.93;;;2.87;;
11123;SDS011;5616;42.692;23.312;2022-10-19T09:43:42;4.50;;;3.10;;
11123;SDS011;5616;42.692;23.312;2022-10-19T09:46:19;8.90;;;3.20;;
11123;SDS011;5616;42.692;23.312;2022-10-19T09:48:54;6.97;;;3.83;;
11123;SDS011;5616;42.692;23.312;2022-10-19T09:51:28;76.43;;;6.77;;
11123;SDS011;5616;42.692;23.312;2022-10-19T09:54:05;29.27;;;5.33;;
11123;SDS011;5616;42.692;23.312;2022-10-19T09:56:32;7.60;;;3.47;;
11123;SDS011;5616;42.692;23.312;2022-10-19T09:59:04;6.30;;;2.83;;
11123;SDS011;5616;42.692;23.312;2022-10-19T10:01:46;4.70;;;3.03;;
11123;SDS011;5616;42.692;23.312;2022-10-19T10:04:26;7.47;;;3.40;;
11123;SDS011;5616;42.692;23.312;2022-10-19T10:06:55;6.43;;;3.43;;
11123;SDS011;5616;42.692;23.312;2022-10-19T10:09:24;4.67;;;3.53;;
11123;SDS011;5616;42.692;23.312;2022-10-19T10:11:53;4.77;;;3.27;;
11123;SDS011;5616;42.692;23.312;2022-10-19T10:14:25;3.40;;;3.00;;
11123;SDS011;5616;42.692;23.312;2022-10-19T10:16:55;6.60;;;2.80;;
11123;SDS011;5616;42.692;23.312;2022-10-19T10:19:25;10.27;;;3.23;;
11123;SDS011;5616;42.692;23.312;2022-10-19T10:21:54;6.77;;;3.40;;
11123;SDS011;5616;42.692;23.312;2022-10-19T10:24:23;7.20;;;3.40;;
11123;SDS011;5616;42.692;23.312;2022-10-19T10:26:52;8.40;;;3.17;;
11123;SDS011;5616;42.692;23.312;2022-10-19T10:29:21;12.87;;;3.90;;
11123;SDS011;5616;42.692;23.312;2022-10-19T10:31:50;6.17;;;3.40;;
11123;SDS011;5616;42.692;23.312;2022-10-19T10:34:23;15.07;;;4.03;;
11123;SDS011;5616;42.692;23.312;2022-10-19T10:37:00;10.50;;;3.80;;
11123;SDS011;5616;42.692;23.312;2022-10-19T10:39:28;5.33;;;3.43;;
11123;SDS011;5616;42.692;23.312;2022-10-19T10:41:58;9.07;;;3.53;;
11123;SDS011;5616;42.692;23.312;2022-10-19T10:44:30;15.90;;;4.50;;
11123;SDS011;5616;42.692;23.312;2022-10-19T10:47:01;5.07;;;3.43;;
11123;SDS011;5616;42.692;23.312;2022-10-19T10:49:32;6.63;;;3.77;;
11123;SDS011;5616;42.692;23.312;2022-10-19T10:52:04;6.63;;;3.43;;
11123;SDS011;5616;42.692;23.312;2022-10-19T10:54:33;28.90;;;5.73;;
11123;SDS011;5616;42.692;23.312;2022-10-19T10:57:04;16.70;;;5.30;;
11123;SDS011;5616;42.692;23.312;2022-10-19T10:59:39;9.10;;;3.83;;
11123;SDS011;5616;42.692;23.312;2022-10-19T11:02:23;6.67;;;2.90;;
11123;SDS011;5616;42.692;23.312;2022-10-19T11:04:57;6.87;;;3.10;;
11123;SDS011;5616;42.692;23.312;2022-10-19T11:07:29;9.07;;;3.00;;
11123;SDS011;5616;42.692;23.312;2022-10-19T11:10:01;4.10;;;2.73;;
11123;SDS011;5616;42.692;23.312;2022-10-19T11:12:35;6.83;;;3.10;;
11123;SDS011;5616;42.692;23.312;2022-10-19T11:15:08;8.97;;;2.77;;
11123;SDS011;5616;42.692;23.312;2022-10-19T11:17:44;6.30;;;3.00;;
11123;SDS011;5616;42.692;23.312;2022-10-19T11:20:19;8.67;;;3.20;;
11123;SDS011;5616;42.692;23.312;2022-10-19T11:22:51;6.53;;;3.03;;
11123;SDS011;5616;42.692;23.312;2022-10-19T11:25:28;8.70;;;3.30;;
11123;SDS011;5616;42.692;23.312;2022-10-19T11:28:03;8.27;;;4.20;;
11123;SDS011;5616;42.692;23.312;2022-10-19T11:30:46;9.37;;;3.20;;
11123;SDS011;5616;42.692;23.312;2022-10-19T11:33:24;8.57;;;2.87;;
11123;SDS011;5616;42.692;23.312;2022-10-19T11:36:08;4.63;;;2.40;;
11123;SDS011;5616;42.692;23.312;2022-10-19T11:38:48;8.23;;;3.03;;
11123;SDS011;5616;42.692;23.312;2022-10-19T11:41:25;11.80;;;3.03;;
11123;SDS011;5616;42.692;23.312;2022-10-19T11:44:05;5.47;;;2.87;;
11123;SDS011;5616;42.692;23.312;2022-10-19T11:46:47;8.93;;;2.77;;
11123;SDS011;5616;42.692;23.312;2022-10-19T11:49:28;7.20;;;2.70;;
11123;SDS011;5616;42.692;23.312;2022-10-19T11:52:10;7.33;;;2.50;;
11123;SDS011;5616;42.692;23.312;2022-10-19T11:54:46;4.57;;;2.40;;
11123;SDS011;5616;42.692;23.312;2022-10-19T11:57:24;3.83;;;2.50;;
11123;SDS011;5616;42.692;23.312;2022-10-19T11:59:59;10.10;;;3.20;;
11123;SDS011;5616;42.692;23.312;2022-10-19T12:02:44;7.37;;;3.03;;
11123;SDS011;5616;42.692;23.312;2022-10-19T12:05:26;5.20;;;3.37;;
11123;SDS011;5616;42.692;23.312;2022-10-19T12:08:03;4.40;;;2.90;;
11123;SDS011;5616;42.692;23.312;2022-10-19T12:10:44;3.43;;;2.60;;
11123;SDS011;5616;42.692;23.312;2022-10-19T12:13:16;3.97;;;2.93;;
11123;SDS011;5616;42.692;23.312;2022-10-19T12:15:49;4.77;;;2.53;;
11123;SDS011;5616;42.692;23.312;2022-10-19T12:18:19;3.53;;;2.93;;
11123;SDS011;5616;42.692;23.312;2022-10-19T12:20:52;7.67;;;2.90;;
11123;SDS011;5616;42.692;23.312;2022-10-19T12:23:24;8.50;;;2.90;;
11123;SDS011;5616;42.692;23.312;2022-10-19T12:25:57;5.07;;;3.07;;
11123;SDS011;5616;42.692;23.312;2022-10-19T12:28:27;5.47;;;3.27;;
11123;SDS011;5616;42.692;23.312;2022-10-19T12:30:57;5.23;;;3.20;;
11123;SDS011;5616;42.692;23.312;2022-10-19T12:33:27;6.53;;;2.90;;
11123;SDS011;5616;42.692;23.312;2022-10-19T12:36:08;9.67;;;3.20;;
11123;SDS011;5616;42.692;23.312;2022-10-19T12:38:46;11.07;;;3.43;;
11123;SDS011;5616;42.692;23.312;2022-10-19T12:41:21;10.57;;;3.20;;
11123;SDS011;5616;42.692;23.312;2022-10-19T12:43:59;5.03;;;3.03;;
11123;SDS011;5616;42.692;23.312;2022-10-19T12:46:45;9.17;;;3.63;;
11123;SDS011;5616;42.692;23.312;2022-10-19T12:55:20;6.57;;;3.13;;
11123;SDS011;5616;42.692;23.312;2022-10-19T12:57:59;5.87;;;3.43;;
11123;SDS011;5616;42.692;23.312;2022-10-19T13:00:29;5.60;;;3.30;;
11123;SDS011;5616;42.692;23.312;2022-10-19T13:02:58;5.30;;;3.37;;
11123;SDS011;5616;42.692;23.312;2022-10-19T13:05:28;7.90;;;3.20;;
11123;SDS011;5616;42.692;23.312;2022-10-19T13:07:57;5.53;;;3.20;;
11123;SDS011;5616;42.692;23.312;2022-10-19T13:10:26;5.10;;;3.40;;
11123;SDS011;5616;42.692;23.312;2022-10-19T13:12:55;3.60;;;3.03;;
11123;SDS011;5616;42.692;23.312;2022-10-19T13:27:51;9.27;;;4.67;;
11123;SDS011;5616;42.692;23.312;2022-10-19T13:33:39;5.27;;;3.77;;
11123;SDS011;5616;42.692;23.312;2022-10-19T13:36:09;5.97;;;2.80;;
11123;SDS011;5616;42.692;23.312;2022-10-19T13:38:39;4.47;;;3.17;;
11123;SDS011;5616;42.692;23.312;2022-10-19T13:41:09;8.40;;;3.33;;
11123;SDS011;5616;42.692;23.312;2022-10-19T13:43:39;8.33;;;3.67;;
11123;SDS011;5616;42.692;23.312;2022-10-19T13:46:17;8.97;;;3.70;;
11123;SDS011;5616;42.692;23.312;2022-10-19T13:48:53;6.63;;;3.30;;
11123;SDS011;5616;42.692;23.312;2022-10-19T13:51:35;6.47;;;3.47;;
11123;SDS011;5616;42.692;23.312;2022-10-19T13:54:19;8.67;;;4.10;;
11123;SDS011;5616;42.692;23.312;2022-10-19T13:57:05;4.70;;;3.50;;
11123;SDS011;5616;42.692;23.312;2022-10-19T14:05:52;6.80;;;3.60;;
11123;SDS011;5616;42.692;23.312;2022-10-19T14:08:39;9.23;;;3.53;;
11123;SDS011;5616;42.692;23.312;2022-10-19T14:11:20;6.87;;;3.60;;
11123;SDS011;5616;42.692;23.312;2022-10-19T14:14:05;10.73;;;3.13;;
11123;SDS011;5616;42.692;23.312;2022-10-19T14:16:43;4.37;;;3.60;;
11123;SDS011;5616;42.692;23.312;2022-10-19T14:19:12;9.37;;;3.70;;
11123;SDS011;5616;42.692;23.312;2022-10-19T14:21:39;8.70;;;3.90;;
11123;SDS011;5616;42.692;23.312;2022-10-19T14:24:18;5.40;;;3.37;;
11123;SDS011;5616;42.692;23.312;2022-10-19T14:26:46;7.93;;;3.90;;
11123;SDS011;5616;42.692;23.312;2022-10-19T14:29:13;6.93;;;3.90;;
11123;SDS011;5616;42.692;23.312;2022-10-19T14:31:40;5.87;;;3.80;;
11123;SDS011;5616;42.692;23.312;2022-10-19T14:34:07;6.73;;;3.67;;
11123;SDS011;5616;42.692;23.312;2022-10-19T14:36:35;8.00;;;3.97;;
11123;SDS011;5616;42.692;23.312;2022-10-19T14:39:04;7.70;;;3.37;;
11123;SDS011;5616;42.692;23.312;2022-10-19T14:41:32;4.93;;;3.50;;
11123;SDS011;5616;42.692;23.312;2022-10-19T14:46:59;10.67;;;4.03;;
11123;SDS011;5616;42.692;23.312;2022-10-19T14:49:26;7.67;;;3.57;;
11123;SDS011;5616;42.692;23.312;2022-10-19T14:51:53;6.57;;;3.17;;
11123;SDS011;5616;42.692;23.312;2022-10-19T14:54:26;8.83;;;3.90;;
11123;SDS011;5616;42.692;23.312;2022-10-19T14:56:57;6.30;;;3.93;;
11123;SDS011;5616;42.692;23.312;2022-10-19T14:59:28;8.70;;;3.67;;
11123;SDS011;5616;42.692;23.312;2022-10-19T15:02:03;6.27;;;4.17;;
11123;SDS011;5616;42.692;23.312;2022-10-19T15:04:37;7.23;;;4.20;;
11123;SDS011;5616;42.692;23.312;2022-10-19T15:07:12;9.40;;;3.83;;
11123;SDS011;5616;42.692;23.312;2022-10-19T15:09:46;9.40;;;4.43;;
11123;SDS011;5616;42.692;23.312;2022-10-19T15:12:18;5.73;;;4.20;;
11123;SDS011;5616;42.692;23.312;2022-10-19T15:14:50;10.00;;;5.00;;
11123;SDS011;5616;42.692;23.312;2022-10-19T15:17:21;7.73;;;4.30;;
11123;SDS011;5616;42.692;23.312;2022-10-19T15:19:51;7.20;;;4.00;;
11123;SDS011;5616;42.692;23.312;2022-10-19T15:22:20;8.57;;;4.00;;
11123;SDS011;5616;42.692;23.312;2022-10-19T15:27:52;4.90;;;4.30;;
11123;SDS011;5616;42.692;23.312;2022-10-19T15:30:24;7.33;;;4.90;;
11123;SDS011;5616;42.692;23.312;2022-10-19T15:32:55;11.00;;;5.00;;
11123;SDS011;5616;42.692;23.312;2022-10-19T15:35:35;9.60;;;4.73;;
11123;SDS011;5616;42.692;23.312;2022-10-19T15:38:04;7.40;;;4.80;;